WetterOnline ( https://www.wetteronline.ch )

Wetter aktuell Arnsberg

Aktuelles Wetter: Werl (84m)

6-stündlich | Neueste Meldungen
Ortszeit Temperatur Wetter
So, 15.09. 8:00 9.1° C leicht bewölkt
So, 15.09. 2:00 7.8° C leicht bewölkt
Sa, 14.09. 20:00 16.1° C wolkenlos
Sa, 14.09. 14:00 18.9° C wolkenlos
Sa, 14.09. 8:00 6.6° C wolkenlos
Sa, 14.09. 2:00 10.4° C wolkenlos
Fr, 13.09. 20:00 17.9° C bewölkt
Fr, 13.09. 14:00 17.5° C bedeckt
Ortszeit Temperatur Wetter
So, 15.09. 12:30 20.9° C wolkig
So, 15.09. 12:20 20.9° C wolkig
So, 15.09. 12:10 20.7° C wolkig
So, 15.09. 12:00 19.7° C leicht bewölkt
So, 15.09. 11:50 19.7° C wolkig
So, 15.09. 11:40 19.5° C wolkig
So, 15.09. 11:30 20.1° C wolkig
So, 15.09. 11:00 19.4° C leicht bewölkt
So, 15.09. 10:30 18.6° C -
So, 15.09. 10:00 17.6° C -
So, 15.09. 9:30 15.0° C -
Ortszeit Relative Feuchte Sichtweite
So, 15.09. 8:00 83% 29 km
So, 15.09. 2:00 92% 25 km
Sa, 14.09. 20:00 55% 65 km
Sa, 14.09. 14:00 49% 35 km
Sa, 14.09. 8:00 98% 2.1 km
Sa, 14.09. 2:00 90% 40 km
Fr, 13.09. 20:00 61% 70 km
Fr, 13.09. 14:00 84% 35 km
Ortszeit Relative Feuchte Sichtweite
So, 15.09. 12:30 47% 25 km
So, 15.09. 12:20 47% -
So, 15.09. 12:10 48% -
So, 15.09. 12:00 50% 30 km
So, 15.09. 11:50 50% -
So, 15.09. 11:40 49% -
So, 15.09. 11:30 50% 30 km
So, 15.09. 11:00 52% 50 km
So, 15.09. 10:30 51% 50 km
So, 15.09. 10:00 56% 29 km
So, 15.09. 9:30 64% 30 km
Ortszeit Niederschlagsmenge Niederschlagsart
So, 15.09. 8:00 0.0 l/m2 in 12 Std. -
So, 15.09. 2:00 0.0 l/m2 in 6 Std. -
Sa, 14.09. 20:00 0.0 l/m2 in 12 Std. -
Sa, 14.09. 14:00 0.0 l/m2 in 6 Std. -
Sa, 14.09. 8:00 0.0 l/m2 in 12 Std. -
Sa, 14.09. 2:00 0.0 l/m2 in 6 Std. -
Fr, 13.09. 20:00 0.3 l/m2 in 12 Std. -
Fr, 13.09. 14:00 0.3 l/m2 in 6 Std. Regen
Ortszeit Niederschlagsmenge Niederschlagsart
So, 15.09. 12:30 0.0 l/m2 in 1 Std. -
So, 15.09. 12:20 keine Meldung -
So, 15.09. 12:10 keine Meldung -
So, 15.09. 12:00 0.0 l/m2 in 1 Std. -
So, 15.09. 11:50 keine Meldung -
So, 15.09. 11:40 keine Meldung -
So, 15.09. 11:30 0.0 l/m2 in 1 Std. -
So, 15.09. 11:00 0.0 l/m2 in 1 Std. -
So, 15.09. 10:30 0.0 l/m2 in 1 Std. -
So, 15.09. 10:00 0.0 l/m2 in 1 Std. -
So, 15.09. 9:30 0.0 l/m2 in 1 Std. -
Ortszeit Stärke Spitze Richtung
km/h Bft. km/h Grad Sektor
So, 15.09. 8:00 4 1 14 230° SW
So, 15.09. 2:00 0 0 11 - -
Sa, 14.09. 20:00 4 1 22 80° O
Sa, 14.09. 14:00 7 2 18 80° O
Sa, 14.09. 8:00 6 1 9 40° NO
Sa, 14.09. 2:00 4 1 22 80° O
Fr, 13.09. 20:00 7 2 22 350° N
Fr, 13.09. 14:00 9 2 30 290° W
Ortszeit Stärke Spitze Richtung
km/h Bft. km/h Grad Sektor
So, 15.09. 12:30 18 3 25 250° W
So, 15.09. 12:20 18 3 - 250° W
So, 15.09. 12:10 17 3 - 260° W
So, 15.09. 12:00 20 4 30 270° W
So, 15.09. 11:50 20 4 - 270° W
So, 15.09. 11:40 22 4 - 270° W
So, 15.09. 11:30 17 3 26 260° W
So, 15.09. 11:00 15 3 22 250° W
So, 15.09. 10:30 13 3 19 230° SW
So, 15.09. 10:00 9 2 15 220° SW
So, 15.09. 9:30 11 2 14 200° S
Ortszeit Untergrenze Bedeckung Gattung
total tief tief mittel hoch
So, 15.09. 8:00 10500 m 4/8 0/8 - - -
So, 15.09. 2:00 10500 m 3/8 0/8 - - -
Sa, 14.09. 20:00 - 0/8 0/8 - - -
Sa, 14.09. 14:00 - 0/8 0/8 - - -
Sa, 14.09. 8:00 - 0/8 0/8 - - -
Sa, 14.09. 2:00 - 0/8 0/8 - - -
Fr, 13.09. 20:00 1500 m 7/8 7/8 - - -
Fr, 13.09. 14:00 510 m 8/8 8/8 - - -
Ortszeit Bedeckungsgrad in Achtel und Wolkenuntergrenze
So, 15.09. 12:30 2(8700m) 8(9000m) 8(10500m)
So, 15.09. 12:20 2(8700m) 8(9000m) 8(10500m)
So, 15.09. 12:10 8(9000m) 8(12000m)
So, 15.09. 12:00 8(9000m) 8(10500m)
So, 15.09. 11:50 8(9000m)
So, 15.09. 11:40 1(9000m) 8(9000m)
So, 15.09. 11:30 4(9000m) 8(9000m) 8(12000m)
So, 15.09. 11:00 1(9000m) 8(10500m) 8(12000m)
So, 15.09. 10:30 -
So, 15.09. 10:00 -
So, 15.09. 9:30 -
Ortszeit Luftdruck NN (hPa) Tendenz (hPa in 3 Std.)
So, 15.09. 8:00 1025 - 0,7
So, 15.09. 2:00 1027 - 2,1
Sa, 14.09. 20:00 1030 - 0,9
Sa, 14.09. 14:00 1033 - 1,9
Sa, 14.09. 8:00 1035 0,0
Sa, 14.09. 2:00 1035 + 0,3
Fr, 13.09. 20:00 1033 + 0,7
Fr, 13.09. 14:00 1032 + 1,2
Ortszeit Luftdruck NN (hPa) Tendenz (hPa in 3 Std.)
So, 15.09. 12:30 1023 - 0,6
So, 15.09. 12:20 1023 keine Meldung
So, 15.09. 12:10 1024 keine Meldung
So, 15.09. 12:00 1024 - 0,2
So, 15.09. 11:50 1024 keine Meldung
So, 15.09. 11:40 1024 keine Meldung
So, 15.09. 11:30 1024 - 0,2
So, 15.09. 11:00 1024 - 0,6
So, 15.09. 10:30 1024 - 0,7
So, 15.09. 10:00 1024 - 0,3
So, 15.09. 9:30 1024 - 0,3
Ortszeit Schneehöhe (cm)
So, 15.09. 8:00 -
So, 15.09. 2:00 -
Sa, 14.09. 20:00 -
Sa, 14.09. 14:00 -
Sa, 14.09. 8:00 -
Sa, 14.09. 2:00 -
Fr, 13.09. 20:00 -
Fr, 13.09. 14:00 -
Ortszeit Schneehöhe (cm)
So, 15.09. 12:30 -
So, 15.09. 12:20 -
So, 15.09. 12:10 -
So, 15.09. 12:00 -
So, 15.09. 11:50 -
So, 15.09. 11:40 -
So, 15.09. 11:30 -
So, 15.09. 11:00 -
So, 15.09. 10:30 -
So, 15.09. 10:00 -
So, 15.09. 9:30 -
Link zu dieser Seite / Seite empfehlen

Das Wetter in ...